createdAt,value
2018-11-23T00:00:26.566Z,3.77
2018-11-23T00:02:55.875Z,3.67
2018-11-23T00:05:25.262Z,3.80
2018-11-23T00:07:55.707Z,2.93
2018-11-23T00:10:25.871Z,3.53
2018-11-23T00:12:54.472Z,3.33
2018-11-23T00:15:24.758Z,3.30
2018-11-23T00:17:54.386Z,4.30
2018-11-23T00:20:24.732Z,5.83
2018-11-23T00:22:54.283Z,4.37
2018-11-23T00:25:24.195Z,4.00
2018-11-23T00:27:53.873Z,3.47
2018-11-23T00:30:27.270Z,3.33
2018-11-23T00:32:56.086Z,3.27
2018-11-23T00:35:26.006Z,3.90
2018-11-23T00:37:55.858Z,3.47
2018-11-23T00:40:26.565Z,3.57
2018-11-23T00:42:55.424Z,3.37
2018-11-23T00:45:24.692Z,5.27
2018-11-23T00:47:55.130Z,3.97
2018-11-23T00:50:24.967Z,5.27
2018-11-23T00:52:54.188Z,4.33
2018-11-23T00:55:24.539Z,5.07
2018-11-23T00:57:53.374Z,6.57
2018-11-23T01:00:27.695Z,4.67
2018-11-23T01:02:57.303Z,3.27
2018-11-23T01:05:26.130Z,5.00
2018-11-23T01:07:55.003Z,3.53
2018-11-23T01:10:24.938Z,3.70
2018-11-23T01:12:54.755Z,4.03
2018-11-23T01:15:24.330Z,4.43
2018-11-23T01:17:53.619Z,4.67
2018-11-23T01:20:24.940Z,4.63
2018-11-23T01:22:54.332Z,3.53
2018-11-23T01:25:24.253Z,4.67
2018-11-23T01:27:54.069Z,3.60
2018-11-23T01:30:32.850Z,4.00
2018-11-23T01:33:02.092Z,4.63
2018-11-23T01:35:31.364Z,4.50
2018-11-23T01:37:59.987Z,6.27
2018-11-23T01:40:30.520Z,4.03
2018-11-23T01:43:00.233Z,4.73
2018-11-23T01:45:29.060Z,3.77
2018-11-23T01:47:57.739Z,4.13
2018-11-23T01:50:28.039Z,4.73
2018-11-23T01:52:56.934Z,3.87
2018-11-23T01:55:26.545Z,4.27
2018-11-23T01:57:55.455Z,3.47
2018-11-23T02:00:25.502Z,5.70
2018-11-23T02:02:55.572Z,3.93
2018-11-23T02:05:25.495Z,3.30
2018-11-23T02:07:54.501Z,3.70
2018-11-23T02:10:23.092Z,3.83
2018-11-23T02:12:51.724Z,3.35
2018-11-23T02:15:22.243Z,4.43
2018-11-23T02:22:46.706Z,3.60
2018-11-23T02:25:16.063Z,3.50
2018-11-23T02:27:44.611Z,3.93
2018-11-23T02:30:14.727Z,3.77
2018-11-23T02:32:43.965Z,3.77
2018-11-23T02:35:16.702Z,5.40
2018-11-23T02:37:45.609Z,3.27
2018-11-23T02:40:15.591Z,4.27
2018-11-23T02:42:45.022Z,3.30
2018-11-23T02:45:15.211Z,3.73
2018-11-23T02:47:48.087Z,3.57
2018-11-23T02:50:17.310Z,3.70
2018-11-23T02:52:47.079Z,4.97
2018-11-23T02:55:17.707Z,3.30
2018-11-23T02:57:47.042Z,3.33
2018-11-23T03:00:17.576Z,3.73
2018-11-23T03:02:46.802Z,3.67
2018-11-23T03:05:17.510Z,4.50
2018-11-23T03:07:46.056Z,4.37
2018-11-23T03:10:15.301Z,3.47
2018-11-23T03:12:44.893Z,3.20
2018-11-23T03:15:15.382Z,3.73
2018-11-23T03:17:44.799Z,4.13
2018-11-23T03:20:17.434Z,3.90
2018-11-23T03:22:46.534Z,3.90
2018-11-23T03:25:16.042Z,3.70
2018-11-23T03:27:45.111Z,4.27
2018-11-23T03:30:16.716Z,3.80
2018-11-23T03:32:46.715Z,5.23
2018-11-23T03:35:15.614Z,4.17
2018-11-23T03:37:45.531Z,3.93
2018-11-23T03:40:14.276Z,4.10
2018-11-23T03:42:43.186Z,4.80
2018-11-23T03:45:14.138Z,4.53
2018-11-23T03:47:43.363Z,4.27
2018-11-23T03:50:13.337Z,4.67
2018-11-23T03:52:42.655Z,4.13
2018-11-23T03:55:11.900Z,5.83
2018-11-23T03:57:40.995Z,6.50
2018-11-23T04:00:17.117Z,4.50
2018-11-23T04:02:40.390Z,7.03
2018-11-23T04:05:09.586Z,5.20
2018-11-23T04:07:38.807Z,5.33
2018-11-23T04:10:08.150Z,5.70
2018-11-23T04:12:37.535Z,8.20
2018-11-23T04:15:07.018Z,7.00
2018-11-23T04:17:35.587Z,6.67
2018-11-23T04:20:04.195Z,5.40
2018-11-23T04:22:33.421Z,7.83
2018-11-23T04:25:02.887Z,8.93
2018-11-23T04:27:31.755Z,5.50
2018-11-23T04:30:00.987Z,5.33
2018-11-23T04:32:30.024Z,6.83
2018-11-23T04:34:59.022Z,4.47
2018-11-23T04:37:32.030Z,4.27
2018-11-23T04:40:00.906Z,5.17
2018-11-23T04:42:29.174Z,6.23
2018-11-23T04:44:58.947Z,5.37
2018-11-23T04:47:28.000Z,4.70
2018-11-23T04:49:56.954Z,3.83
2018-11-23T04:52:25.650Z,4.53
2018-11-23T04:54:54.502Z,4.65
2018-11-23T04:57:23.172Z,4.20
2018-11-23T04:59:52.476Z,4.37
2018-11-23T05:02:21.239Z,4.73
2018-11-23T05:04:50.802Z,4.87
2018-11-23T05:07:20.327Z,4.10
2018-11-23T05:09:49.079Z,4.97
2018-11-23T05:12:18.363Z,7.67
2018-11-23T05:14:47.382Z,4.10
2018-11-23T05:17:16.504Z,4.23
2018-11-23T05:19:45.571Z,4.80
2018-11-23T05:22:14.698Z,5.83
2018-11-23T05:24:43.614Z,4.87
2018-11-23T05:27:13.411Z,4.50
2018-11-23T05:29:43.071Z,8.00
2018-11-23T05:32:12.067Z,6.43
2018-11-23T05:34:42.267Z,5.60
2018-11-23T05:37:12.017Z,5.57
2018-11-23T05:39:41.873Z,4.10
2018-11-23T05:42:16.051Z,7.67
2018-11-23T05:44:45.347Z,5.80
2018-11-23T05:47:13.975Z,5.93
2018-11-23T05:49:43.043Z,4.87
2018-11-23T05:52:12.323Z,5.47
2018-11-23T05:54:41.543Z,9.87
2018-11-23T05:57:10.968Z,7.10
2018-11-23T05:59:39.558Z,9.20
2018-11-23T06:02:08.524Z,6.43
2018-11-23T06:04:38.010Z,6.27
2018-11-23T06:07:07.177Z,7.60
2018-11-23T06:09:36.616Z,6.30
2018-11-23T06:12:05.898Z,4.87
2018-11-23T06:14:34.770Z,6.83
2018-11-23T06:17:03.859Z,8.43
2018-11-23T06:19:32.426Z,6.93
2018-11-23T06:22:01.287Z,7.50
2018-11-23T06:24:32.170Z,6.67
2018-11-23T06:26:59.959Z,6.13
2018-11-23T06:29:29.184Z,7.43
2018-11-23T06:31:59.775Z,8.90
2018-11-23T06:34:29.164Z,6.40
2018-11-23T06:36:57.574Z,6.90
2018-11-23T06:39:26.800Z,6.03
2018-11-23T06:41:55.974Z,6.00
2018-11-23T06:44:29.779Z,7.03
2018-11-23T06:46:58.610Z,8.60
2018-11-23T06:49:28.387Z,5.47
2018-11-23T06:51:57.312Z,6.57
2018-11-23T06:54:26.315Z,12.23
2018-11-23T06:56:55.293Z,10.80
2018-11-23T06:59:24.091Z,8.47
2018-11-23T07:01:53.193Z,6.27
2018-11-23T07:04:22.256Z,8.40
2018-11-23T07:06:52.402Z,6.27
2018-11-23T07:09:21.215Z,8.27
2018-11-23T07:11:50.628Z,8.37
2018-11-23T07:14:19.902Z,7.40
2018-11-23T07:16:49.914Z,13.73
2018-11-23T07:19:18.545Z,8.93
2018-11-23T07:21:49.043Z,6.73
2018-11-23T07:24:18.011Z,7.40
2018-11-23T07:26:46.767Z,9.20
2018-11-23T07:29:15.623Z,6.57
2018-11-23T07:31:44.665Z,6.00
2018-11-23T07:34:14.035Z,5.40
2018-11-23T07:36:43.759Z,6.53
2018-11-23T07:39:18.458Z,8.83
2018-11-23T07:41:52.871Z,9.33
2018-11-23T07:44:21.779Z,8.30
2018-11-23T07:46:50.639Z,8.13
2018-11-23T07:49:19.449Z,7.90
2018-11-23T07:51:48.795Z,8.53
2018-11-23T07:54:17.181Z,6.57
2018-11-23T07:56:45.885Z,7.47
2018-11-23T07:59:15.198Z,7.50
2018-11-23T08:01:44.567Z,7.55
2018-11-23T08:04:13.199Z,15.83
2018-11-23T08:06:42.173Z,7.00
2018-11-23T08:09:11.037Z,9.50
2018-11-23T08:11:39.994Z,8.30
2018-11-23T08:14:09.335Z,9.70
2018-11-23T08:16:37.671Z,11.20
2018-11-23T08:19:06.556Z,8.50
2018-11-23T08:21:36.238Z,12.50
2018-11-23T08:24:05.370Z,11.87
2018-11-23T08:26:34.164Z,12.87
2018-11-23T08:29:03.292Z,10.37
2018-11-23T08:31:32.552Z,7.53
2018-11-23T08:34:01.768Z,10.23
2018-11-23T08:36:30.770Z,9.13
2018-11-23T08:39:04.736Z,8.23
2018-11-23T08:41:29.298Z,9.43
2018-11-23T08:43:58.084Z,8.43
2018-11-23T08:46:26.743Z,8.40
2018-11-23T08:48:56.426Z,8.97
2018-11-23T08:51:26.531Z,8.47
2018-11-23T08:53:55.590Z,5.73
2018-11-23T08:56:23.925Z,8.50
2018-11-23T08:58:53.190Z,6.80
2018-11-23T09:01:22.226Z,9.57
2018-11-23T09:03:51.499Z,7.90
2018-11-23T09:06:20.170Z,7.47
2018-11-23T09:08:49.474Z,6.37
2018-11-23T09:11:18.470Z,6.90
2018-11-23T09:13:47.627Z,7.80
2018-11-23T09:16:16.627Z,6.97
2018-11-23T09:18:45.669Z,8.23
2018-11-23T09:21:14.657Z,6.93
2018-11-23T09:23:43.257Z,7.13
2018-11-23T09:26:12.218Z,6.63
2018-11-23T09:28:40.840Z,6.90
2018-11-23T09:31:09.520Z,5.90
2018-11-23T09:33:38.102Z,6.30
2018-11-23T09:36:07.423Z,8.10
2018-11-23T09:38:36.115Z,7.40
2018-11-23T09:41:05.012Z,5.43
2018-11-23T09:43:34.315Z,8.30
2018-11-23T09:46:03.168Z,6.27
2018-11-23T09:48:32.543Z,6.43
2018-11-23T09:51:01.803Z,9.90
2018-11-23T09:53:31.802Z,6.20
2018-11-23T09:56:00.674Z,7.47
2018-11-23T09:58:30.415Z,6.13
2018-11-23T10:01:00.115Z,7.53
2018-11-23T10:03:29.056Z,6.43
2018-11-23T10:05:58.085Z,6.30
2018-11-23T10:08:26.642Z,7.73
2018-11-23T10:10:56.252Z,7.20
2018-11-23T10:13:25.208Z,7.37
2018-11-23T10:15:54.452Z,7.50
2018-11-23T10:18:23.347Z,5.83
2018-11-23T10:20:52.755Z,8.23
2018-11-23T10:23:21.803Z,4.93
2018-11-23T10:25:50.855Z,6.00
2018-11-23T10:28:19.804Z,8.30
2018-11-23T10:30:49.015Z,8.67
2018-11-23T10:33:17.555Z,5.97
2018-11-23T10:35:46.948Z,5.67
2018-11-23T10:38:15.634Z,6.57
2018-11-23T10:40:44.428Z,6.40
2018-11-23T10:43:13.292Z,5.87
2018-11-23T10:45:42.013Z,5.22
2018-11-23T10:48:11.199Z,7.50
2018-11-23T10:50:41.973Z,6.77
2018-11-23T10:53:13.408Z,8.00
2018-11-23T10:55:42.097Z,6.70
2018-11-23T10:58:11.480Z,7.27
2018-11-23T11:00:45.723Z,7.87
2018-11-23T11:03:34.192Z,7.57
2018-11-23T11:06:12.163Z,7.43
2018-11-23T11:08:41.526Z,7.40
2018-11-23T11:11:13.567Z,6.53
2018-11-23T11:13:39.529Z,8.73
2018-11-23T11:16:08.842Z,8.77
2018-11-23T11:18:37.700Z,7.17
2018-11-23T11:21:07.042Z,7.90
2018-11-23T11:23:35.660Z,7.27
2018-11-23T11:26:04.759Z,9.20
2018-11-23T11:28:33.935Z,11.23
2018-11-23T11:31:04.359Z,8.83
2018-11-23T11:33:33.401Z,8.87
2018-11-23T11:36:03.417Z,9.73
2018-11-23T11:38:32.583Z,8.60
2018-11-23T11:41:01.814Z,6.53
2018-11-23T11:43:30.825Z,10.07
2018-11-23T11:45:59.795Z,8.40
2018-11-23T11:48:28.805Z,11.27
2018-11-23T11:50:58.536Z,13.75
2018-11-23T11:53:27.724Z,8.50
2018-11-23T11:55:56.678Z,11.70
2018-11-23T11:58:25.697Z,12.10
2018-11-23T12:00:54.926Z,12.97
2018-11-23T12:03:24.121Z,11.07
2018-11-23T12:05:53.818Z,10.93
2018-11-23T12:08:22.423Z,11.43
2018-11-23T12:10:51.403Z,12.10
2018-11-23T12:13:20.646Z,14.20
2018-11-23T12:15:49.329Z,8.47
2018-11-23T12:18:18.314Z,18.50
2018-11-23T12:20:48.046Z,9.30
2018-11-23T12:23:16.817Z,12.03
2018-11-23T12:25:45.637Z,10.70
2018-11-23T12:28:14.891Z,10.43
2018-11-23T12:30:44.088Z,7.80
2018-11-23T12:33:13.959Z,9.47
2018-11-23T12:35:43.135Z,9.83
2018-11-23T12:38:13.253Z,9.07
2018-11-23T12:40:42.156Z,13.67
2018-11-23T12:43:11.666Z,11.00
2018-11-23T12:45:40.834Z,11.87
2018-11-23T12:48:09.450Z,12.03
2018-11-23T12:50:38.623Z,9.80
2018-11-23T12:53:07.608Z,8.97
2018-11-23T12:55:36.447Z,10.57
2018-11-23T12:58:06.542Z,9.90
2018-11-23T13:00:35.362Z,13.93
2018-11-23T13:03:05.236Z,11.00
2018-11-23T13:05:34.818Z,13.43
2018-11-23T13:08:05.554Z,10.23
2018-11-23T13:10:34.625Z,12.90
2018-11-23T13:13:04.624Z,8.78
2018-11-23T13:15:33.438Z,14.67
2018-11-23T13:18:02.719Z,13.20
2018-11-23T13:20:31.732Z,13.90
2018-11-23T13:23:02.547Z,13.90
2018-11-23T13:25:32.192Z,10.70
2018-11-23T13:28:01.176Z,9.87
2018-11-23T13:30:31.399Z,9.40
2018-11-23T13:33:01.642Z,13.13
2018-11-23T13:35:30.714Z,10.30
2018-11-23T13:38:00.032Z,13.80
2018-11-23T13:40:29.951Z,11.20
2018-11-23T13:43:00.163Z,9.93
2018-11-23T13:45:31.572Z,12.23
2018-11-23T13:48:01.069Z,10.27
2018-11-23T13:50:29.974Z,9.17
2018-11-23T13:53:01.090Z,11.20
2018-11-23T13:55:30.293Z,11.17
2018-11-23T13:57:59.291Z,12.37
2018-11-23T14:00:29.411Z,11.60
2018-11-23T14:02:58.761Z,10.67
2018-11-23T14:05:29.206Z,9.23
2018-11-23T14:07:59.126Z,8.90
2018-11-23T14:10:29.042Z,8.47
2018-11-23T14:12:58.256Z,7.93
2018-11-23T14:15:28.356Z,8.07
2018-11-23T14:17:58.368Z,14.47
2018-11-23T14:20:28.044Z,17.57
2018-11-23T14:22:56.840Z,12.10
2018-11-23T14:25:27.394Z,9.50
2018-11-23T14:27:56.574Z,14.80
2018-11-23T14:30:30.870Z,17.13
2018-11-23T14:33:00.401Z,11.53
2018-11-23T14:35:30.626Z,12.70
2018-11-23T14:37:59.624Z,14.50
2018-11-23T14:40:29.051Z,8.17
2018-11-23T14:42:58.861Z,6.93
2018-11-23T14:45:28.870Z,23.43
2018-11-23T14:47:58.585Z,11.43
2018-11-23T14:50:28.835Z,10.20
2018-11-23T14:52:58.686Z,6.77
2018-11-23T14:55:28.135Z,10.40
2018-11-23T14:57:57.672Z,9.13
2018-11-23T15:00:28.831Z,8.57
2018-11-23T15:02:58.887Z,8.23
2018-11-23T15:05:28.138Z,9.27
2018-11-23T15:07:57.112Z,8.37
2018-11-23T15:10:27.582Z,8.23
2018-11-23T15:12:58.147Z,10.27
2018-11-23T15:15:32.312Z,7.73
2018-11-23T15:18:02.976Z,11.13
2018-11-23T15:20:35.911Z,6.23
2018-11-23T15:23:08.458Z,8.90
2018-11-23T15:25:37.358Z,6.40
2018-11-23T15:28:11.004Z,8.13
2018-11-23T15:30:40.384Z,13.43
2018-11-23T15:33:10.548Z,7.00
2018-11-23T15:35:40.602Z,8.00
2018-11-23T15:38:12.561Z,5.93
2018-11-23T15:40:42.191Z,7.97
2018-11-23T15:43:12.758Z,10.67
2018-11-23T15:45:42.261Z,6.27
2018-11-23T15:48:14.494Z,7.37
2018-11-23T15:50:43.911Z,8.73
2018-11-23T15:53:14.511Z,7.57
2018-11-23T15:55:43.666Z,7.80
2018-11-23T15:58:14.474Z,8.30
2018-11-23T16:00:44.922Z,7.23
2018-11-23T16:03:14.351Z,6.30
2018-11-23T16:05:43.147Z,14.93
2018-11-23T16:08:13.308Z,7.87
2018-11-23T16:10:42.617Z,6.70
2018-11-23T16:13:11.880Z,10.63
2018-11-23T16:15:40.810Z,12.97
2018-11-23T16:18:09.960Z,6.03
2018-11-23T16:20:40.025Z,7.57
2018-11-23T16:23:14.894Z,5.37
2018-11-23T16:25:44.311Z,7.37
2018-11-23T16:28:13.841Z,5.50
2018-11-23T16:30:44.291Z,6.30
2018-11-23T16:33:14.690Z,9.17
2018-11-23T16:35:43.806Z,5.60
2018-11-23T16:38:14.383Z,10.63
2018-11-23T16:40:48.350Z,8.73
2018-11-23T16:43:17.820Z,5.27
2018-11-23T16:45:47.439Z,7.57
2018-11-23T16:48:17.108Z,5.57
2018-11-23T16:50:46.181Z,3.40
2018-11-23T16:53:15.984Z,4.33
2018-11-23T16:55:44.574Z,3.97
2018-11-23T16:58:15.397Z,3.53
2018-11-23T17:00:45.853Z,5.43
2018-11-23T17:03:15.998Z,6.00
2018-11-23T17:05:48.031Z,4.80
2018-11-23T17:08:16.846Z,3.93
2018-11-23T17:10:45.649Z,4.57
2018-11-23T17:13:14.320Z,4.50
2018-11-23T17:15:43.598Z,3.40
2018-11-23T17:18:12.623Z,5.03
2018-11-23T17:20:42.749Z,3.58
2018-11-23T17:23:12.706Z,4.47
2018-11-23T17:25:41.139Z,3.57
2018-11-23T17:28:11.478Z,3.83
2018-11-23T17:30:40.571Z,6.80
2018-11-23T17:33:09.643Z,6.93
2018-11-23T17:35:40.044Z,5.03
2018-11-23T17:38:08.900Z,3.57
2018-11-23T17:40:39.103Z,5.37
2018-11-23T17:43:07.816Z,6.17
2018-11-23T17:45:36.401Z,5.87
2018-11-23T17:48:06.016Z,6.50
2018-11-23T17:50:36.159Z,5.23
2018-11-23T17:53:05.178Z,4.07
2018-11-23T17:55:34.243Z,5.47
2018-11-23T17:58:03.828Z,5.50
2018-11-23T18:00:38.942Z,4.77
2018-11-23T18:03:03.999Z,4.10
2018-11-23T18:05:33.850Z,4.53
2018-11-23T18:08:02.855Z,3.97
2018-11-23T18:10:33.391Z,3.63
2018-11-23T18:13:02.667Z,5.60
2018-11-23T18:15:32.486Z,4.90
2018-11-23T18:18:02.454Z,6.43
2018-11-23T18:20:31.895Z,4.37
2018-11-23T18:23:02.445Z,7.33
2018-11-23T18:25:36.958Z,4.97
2018-11-23T18:28:06.356Z,5.83
2018-11-23T18:30:35.160Z,5.00
2018-11-23T18:33:06.906Z,5.57
2018-11-23T18:35:35.891Z,4.47
2018-11-23T18:38:05.178Z,3.90
2018-11-23T18:40:37.406Z,3.53
2018-11-23T18:43:02.679Z,4.80
2018-11-23T18:45:31.994Z,5.57
2018-11-23T18:48:01.103Z,5.20
2018-11-23T18:50:29.680Z,5.00
2018-11-23T18:52:58.781Z,4.57
2018-11-23T18:55:27.791Z,5.50
2018-11-23T18:57:56.571Z,4.33
2018-11-23T19:00:25.183Z,5.90
2018-11-23T19:02:54.055Z,6.37
2018-11-23T19:05:28.623Z,4.22
2018-11-23T19:07:57.542Z,4.50
2018-11-23T19:10:26.486Z,4.83
2018-11-23T19:12:55.982Z,5.70
2018-11-23T19:15:25.928Z,6.00
2018-11-23T19:17:53.876Z,7.10
2018-11-23T19:20:22.955Z,4.20
2018-11-23T19:22:56.062Z,4.83
2018-11-23T19:25:24.750Z,5.53
2018-11-23T19:27:54.336Z,6.03
2018-11-23T19:30:28.544Z,5.63
2018-11-23T19:32:53.880Z,5.33
2018-11-23T19:35:23.199Z,5.27
2018-11-23T19:37:52.061Z,8.73
2018-11-23T19:40:21.702Z,5.90
2018-11-23T19:42:50.467Z,4.93
2018-11-23T19:45:18.984Z,6.03
2018-11-23T19:47:47.818Z,5.63
2018-11-23T19:50:16.609Z,6.30
2018-11-23T19:52:45.162Z,5.97
2018-11-23T20:22:56.152Z,7.60
2018-11-23T20:25:24.787Z,6.67
2018-11-23T20:27:54.167Z,6.23
2018-11-23T20:30:22.954Z,5.60
2018-11-23T20:32:51.930Z,7.30
2018-11-23T20:35:21.455Z,5.97
2018-11-23T20:37:50.650Z,8.77
2018-11-23T20:40:20.977Z,7.83
2018-11-23T20:42:50.077Z,5.70
2018-11-23T20:45:19.230Z,6.93
2018-11-23T20:47:48.176Z,7.27
2018-11-23T20:50:17.112Z,8.97
2018-11-23T20:52:46.066Z,6.00
2018-11-23T20:55:15.991Z,4.93
2018-11-23T20:57:44.843Z,14.07
2018-11-23T21:00:19.476Z,6.93
2018-11-23T21:02:49.942Z,6.53
2018-11-23T21:05:18.831Z,6.33
2018-11-23T21:07:47.587Z,8.10
2018-11-23T21:10:20.351Z,6.73
2018-11-23T21:12:45.830Z,7.10
2018-11-23T21:15:19.994Z,8.23
2018-11-23T21:17:48.936Z,6.33
2018-11-23T21:20:17.497Z,7.93
2018-11-23T21:22:46.794Z,7.57
2018-11-23T21:25:16.041Z,6.00
2018-11-23T21:27:44.823Z,6.47
2018-11-23T21:30:14.438Z,6.20
2018-11-23T21:32:43.502Z,6.23
2018-11-23T21:35:12.430Z,6.03
2018-11-23T21:37:41.295Z,7.27
2018-11-23T21:40:10.629Z,8.90
2018-11-23T21:42:39.803Z,6.17
2018-11-23T21:45:10.012Z,5.33
2018-11-23T21:47:38.952Z,6.10
2018-11-23T21:50:09.327Z,8.83
2018-11-23T21:52:38.511Z,6.37
2018-11-23T21:55:08.465Z,6.73
2018-11-23T21:57:37.776Z,8.63
2018-11-23T22:00:08.598Z,4.90
2018-11-23T22:02:37.442Z,4.20
2018-11-23T22:05:07.467Z,4.37
2018-11-23T22:07:36.478Z,5.30
2018-11-23T22:10:08.097Z,4.53
2018-11-23T22:12:36.982Z,5.57
2018-11-23T22:15:08.599Z,16.13
2018-11-23T22:17:37.873Z,6.70
2018-11-23T22:20:08.840Z,5.50
2018-11-23T22:22:38.773Z,6.63
2018-11-23T22:25:09.385Z,6.43
2018-11-23T22:27:38.058Z,7.40
2018-11-23T22:30:14.649Z,8.83
2018-11-23T22:32:43.751Z,10.13
2018-11-23T22:35:13.447Z,9.07
2018-11-23T22:37:42.807Z,15.83
2018-11-23T22:40:14.363Z,13.83
2018-11-23T22:42:43.775Z,11.40
2018-11-23T22:45:13.512Z,16.90
2018-11-23T22:47:42.478Z,6.83
2018-11-23T22:50:15.790Z,13.30
2018-11-23T22:52:44.210Z,32.67
2018-11-23T22:55:13.930Z,11.67
2018-11-23T22:57:43.240Z,9.23
2018-11-23T23:00:19.004Z,10.40
2018-11-23T23:02:48.179Z,7.90
2018-11-23T23:05:17.785Z,8.10
2018-11-23T23:07:46.754Z,7.33
2018-11-23T23:10:17.007Z,7.90
2018-11-23T23:12:46.184Z,9.00
2018-11-23T23:15:14.879Z,8.43
2018-11-23T23:17:43.488Z,7.77
2018-11-23T23:20:12.810Z,11.77
2018-11-23T23:22:41.703Z,10.93
2018-11-23T23:25:11.391Z,10.27
2018-11-23T23:27:40.215Z,9.47
2018-11-23T23:30:10.830Z,7.97
2018-11-23T23:32:39.622Z,13.40
2018-11-23T23:35:08.717Z,8.07
2018-11-23T23:37:37.957Z,8.63
2018-11-23T23:40:23.934Z,9.17
2018-11-23T23:42:53.242Z,9.57
2018-11-23T23:45:23.308Z,6.27
2018-11-23T23:47:52.015Z,8.47
2018-11-23T23:50:21.582Z,8.07
2018-11-23T23:52:50.945Z,9.20
2018-11-23T23:55:19.942Z,6.27
2018-11-23T23:57:48.950Z,8.13
